sensor_id;sensor_type;location;lat;lon;timestamp;temperature;humidity
12309;DHT22;6217;48.150;17.142;2022-09-17T00:03:59;15.60;93.20
12309;DHT22;6217;48.150;17.142;2022-09-17T00:08:11;15.60;93.20
12309;DHT22;6217;48.150;17.142;2022-09-17T00:12:19;15.60;93.30
12309;DHT22;6217;48.150;17.142;2022-09-17T00:16:28;15.50;93.20
12309;DHT22;6217;48.150;17.142;2022-09-17T00:20:43;15.50;93.50
12309;DHT22;6217;48.150;17.142;2022-09-17T00:24:51;15.50;93.20
12309;DHT22;6217;48.150;17.142;2022-09-17T00:28:58;15.50;93.20
12309;DHT22;6217;48.150;17.142;2022-09-17T00:33:04;15.50;93.10
12309;DHT22;6217;48.150;17.142;2022-09-17T00:37:10;15.40;93.10
12309;DHT22;6217;48.150;17.142;2022-09-17T00:41:18;15.40;93.20
12309;DHT22;6217;48.150;17.142;2022-09-17T00:45:25;15.30;93.20
12309;DHT22;6217;48.150;17.142;2022-09-17T00:49:32;15.30;93.30
12309;DHT22;6217;48.150;17.142;2022-09-17T00:53:38;15.30;93.40
12309;DHT22;6217;48.150;17.142;2022-09-17T00:57:45;15.30;93.30
12309;DHT22;6217;48.150;17.142;2022-09-17T01:01:51;15.30;93.20
12309;DHT22;6217;48.150;17.142;2022-09-17T01:15:44;15.20;93.20
12309;DHT22;6217;48.150;17.142;2022-09-17T01:24:49;15.20;93.30
12309;DHT22;6217;48.150;17.142;2022-09-17T01:39:24;15.20;93.20
12309;DHT22;6217;48.150;17.142;2022-09-17T01:48:31;15.20;93.40
12309;DHT22;6217;48.150;17.142;2022-09-17T01:52:40;15.20;93.10
12309;DHT22;6217;48.150;17.142;2022-09-17T01:56:52;15.30;93.00
12309;DHT22;6217;48.150;17.142;2022-09-17T02:01:03;15.30;93.00
12309;DHT22;6217;48.150;17.142;2022-09-17T02:05:23;15.30;92.90
12309;DHT22;6217;48.150;17.142;2022-09-17T02:09:42;15.20;92.90
12309;DHT22;6217;48.150;17.142;2022-09-17T02:13:57;15.30;93.00
12309;DHT22;6217;48.150;17.142;2022-09-17T02:18:18;15.30;92.80
12309;DHT22;6217;48.150;17.142;2022-09-17T02:22:51;15.40;92.80
12309;DHT22;6217;48.150;17.142;2022-09-17T02:27:15;15.40;92.60
12309;DHT22;6217;48.150;17.142;2022-09-17T02:31:23;15.40;92.70
12309;DHT22;6217;48.150;17.142;2022-09-17T02:35:30;15.40;92.70
12309;DHT22;6217;48.150;17.142;2022-09-17T02:39:38;15.40;92.60
12309;DHT22;6217;48.150;17.142;2022-09-17T02:53:30;15.30;92.40
12309;DHT22;6217;48.150;17.142;2022-09-17T02:57:43;15.30;92.50
12309;DHT22;6217;48.150;17.142;2022-09-17T03:06:13;15.30;92.60
12309;DHT22;6217;48.150;17.142;2022-09-17T03:10:19;15.30;92.40
12309;DHT22;6217;48.150;17.142;2022-09-17T03:14:25;15.30;92.40
12309;DHT22;6217;48.150;17.142;2022-09-17T03:18:31;15.20;92.50
12309;DHT22;6217;48.150;17.142;2022-09-17T03:22:38;15.20;92.60
12309;DHT22;6217;48.150;17.142;2022-09-17T03:26:44;15.10;92.60
12309;DHT22;6217;48.150;17.142;2022-09-17T03:30:52;15.10;92.70
12309;DHT22;6217;48.150;17.142;2022-09-17T03:34:58;15.10;92.70
12309;DHT22;6217;48.150;17.142;2022-09-17T03:39:05;15.10;92.70
12309;DHT22;6217;48.150;17.142;2022-09-17T03:43:11;15.00;92.70
12309;DHT22;6217;48.150;17.142;2022-09-17T03:47:17;14.90;92.80
12309;DHT22;6217;48.150;17.142;2022-09-17T03:51:23;14.90;92.90
12309;DHT22;6217;48.150;17.142;2022-09-17T03:55:29;14.90;92.90
12309;DHT22;6217;48.150;17.142;2022-09-17T03:59:35;14.90;92.90
12309;DHT22;6217;48.150;17.142;2022-09-17T04:03:42;14.90;92.80
12309;DHT22;6217;48.150;17.142;2022-09-17T04:07:49;14.90;92.80
12309;DHT22;6217;48.150;17.142;2022-09-17T04:11:55;15.00;92.80
12309;DHT22;6217;48.150;17.142;2022-09-17T04:16:02;15.00;92.80
12309;DHT22;6217;48.150;17.142;2022-09-17T04:20:08;14.90;92.70
12309;DHT22;6217;48.150;17.142;2022-09-17T04:24:14;15.00;92.60
12309;DHT22;6217;48.150;17.142;2022-09-17T04:28:21;14.90;92.50
12309;DHT22;6217;48.150;17.142;2022-09-17T04:32:28;14.90;92.50
12309;DHT22;6217;48.150;17.142;2022-09-17T04:36:34;15.00;92.40
12309;DHT22;6217;48.150;17.142;2022-09-17T04:40:40;15.00;92.50
12309;DHT22;6217;48.150;17.142;2022-09-17T04:44:47;14.90;92.50
12309;DHT22;6217;48.150;17.142;2022-09-17T04:48:53;14.90;92.60
12309;DHT22;6217;48.150;17.142;2022-09-17T04:52:59;14.90;92.70
12309;DHT22;6217;48.150;17.142;2022-09-17T04:57:05;14.80;92.70
12309;DHT22;6217;48.150;17.142;2022-09-17T05:01:12;14.80;92.70
12309;DHT22;6217;48.150;17.142;2022-09-17T05:05:20;14.80;92.80
12309;DHT22;6217;48.150;17.142;2022-09-17T05:09:26;14.80;92.90
12309;DHT22;6217;48.150;17.142;2022-09-17T05:13:32;14.80;93.00
12309;DHT22;6217;48.150;17.142;2022-09-17T05:17:38;14.80;93.00
12309;DHT22;6217;48.150;17.142;2022-09-17T05:21:44;14.80;93.10
12309;DHT22;6217;48.150;17.142;2022-09-17T05:25:51;14.90;93.00
12309;DHT22;6217;48.150;17.142;2022-09-17T05:29:57;15.10;92.80
12309;DHT22;6217;48.150;17.142;2022-09-17T05:34:03;15.30;92.60
12309;DHT22;6217;48.150;17.142;2022-09-17T05:38:10;15.50;92.20
12309;DHT22;6217;48.150;17.142;2022-09-17T05:42:16;15.70;91.90
12309;DHT22;6217;48.150;17.142;2022-09-17T05:46:22;15.90;91.50
12309;DHT22;6217;48.150;17.142;2022-09-17T05:50:29;16.00;91.30
12309;DHT22;6217;48.150;17.142;2022-09-17T05:54:35;15.90;91.20
12309;DHT22;6217;48.150;17.142;2022-09-17T05:58:41;15.70;91.30
12309;DHT22;6217;48.150;17.142;2022-09-17T06:02:54;15.50;91.70
12309;DHT22;6217;48.150;17.142;2022-09-17T06:07:05;15.50;91.80
12309;DHT22;6217;48.150;17.142;2022-09-17T06:11:13;15.40;91.90
12309;DHT22;6217;48.150;17.142;2022-09-17T06:15:19;15.30;91.90
12309;DHT22;6217;48.150;17.142;2022-09-17T06:19:26;15.20;92.00
12309;DHT22;6217;48.150;17.142;2022-09-17T06:23:33;15.20;92.10
12309;DHT22;6217;48.150;17.142;2022-09-17T06:27:42;15.30;92.00
12309;DHT22;6217;48.150;17.142;2022-09-17T06:31:48;15.40;92.00
12309;DHT22;6217;48.150;17.142;2022-09-17T06:36:03;15.40;91.80
12309;DHT22;6217;48.150;17.142;2022-09-17T06:40:11;15.50;91.70
12309;DHT22;6217;48.150;17.142;2022-09-17T06:44:18;15.60;91.60
12309;DHT22;6217;48.150;17.142;2022-09-17T06:48:25;15.90;91.40
12309;DHT22;6217;48.150;17.142;2022-09-17T06:52:32;16.00;91.10
12309;DHT22;6217;48.150;17.142;2022-09-17T06:56:38;16.10;91.00
12309;DHT22;6217;48.150;17.142;2022-09-17T07:00:44;16.10;90.90
12309;DHT22;6217;48.150;17.142;2022-09-17T07:04:50;16.10;91.00
12309;DHT22;6217;48.150;17.142;2022-09-17T07:08:57;16.00;90.90
12309;DHT22;6217;48.150;17.142;2022-09-17T07:13:03;15.90;91.00
12309;DHT22;6217;48.150;17.142;2022-09-17T07:17:09;15.80;91.30
12309;DHT22;6217;48.150;17.142;2022-09-17T07:21:16;15.90;91.30
12309;DHT22;6217;48.150;17.142;2022-09-17T07:25:23;15.90;91.20
12309;DHT22;6217;48.150;17.142;2022-09-17T07:29:30;16.00;91.20
12309;DHT22;6217;48.150;17.142;2022-09-17T07:33:38;15.90;91.20
12309;DHT22;6217;48.150;17.142;2022-09-17T07:37:44;15.90;91.10
12309;DHT22;6217;48.150;17.142;2022-09-17T07:41:52;15.90;91.10
12309;DHT22;6217;48.150;17.142;2022-09-17T07:46:00;15.90;91.00
12309;DHT22;6217;48.150;17.142;2022-09-17T07:50:07;16.00;91.00
12309;DHT22;6217;48.150;17.142;2022-09-17T07:54:14;16.10;90.80
12309;DHT22;6217;48.150;17.142;2022-09-17T07:58:30;16.10;90.70
12309;DHT22;6217;48.150;17.142;2022-09-17T08:02:38;16.10;90.70
12309;DHT22;6217;48.150;17.142;2022-09-17T08:06:44;16.20;90.60
12309;DHT22;6217;48.150;17.142;2022-09-17T08:10:53;16.20;90.40
12309;DHT22;6217;48.150;17.142;2022-09-17T08:14:59;16.20;90.20
12309;DHT22;6217;48.150;17.142;2022-09-17T08:19:06;16.30;90.00
12309;DHT22;6217;48.150;17.142;2022-09-17T08:23:13;16.40;89.50
12309;DHT22;6217;48.150;17.142;2022-09-17T08:27:20;16.40;89.00
12309;DHT22;6217;48.150;17.142;2022-09-17T08:31:26;16.30;88.70
12309;DHT22;6217;48.150;17.142;2022-09-17T08:35:34;16.30;88.40
12309;DHT22;6217;48.150;17.142;2022-09-17T08:39:41;16.30;88.20
12309;DHT22;6217;48.150;17.142;2022-09-17T08:48:13;16.10;88.70
12309;DHT22;6217;48.150;17.142;2022-09-17T08:56:37;16.00;87.70
12309;DHT22;6217;48.150;17.142;2022-09-17T09:00:52;16.00;86.90
12309;DHT22;6217;48.150;17.142;2022-09-17T09:05:29;15.90;87.20
12309;DHT22;6217;48.150;17.142;2022-09-17T09:09:43;16.00;86.90
12309;DHT22;6217;48.150;17.142;2022-09-17T09:18:24;16.00;86.30
12309;DHT22;6217;48.150;17.142;2022-09-17T09:27:16;15.90;85.30
12309;DHT22;6217;48.150;17.142;2022-09-17T09:31:36;15.90;84.50
12309;DHT22;6217;48.150;17.142;2022-09-17T09:35:46;15.90;84.30
12309;DHT22;6217;48.150;17.142;2022-09-17T09:39:53;15.90;83.60
12309;DHT22;6217;48.150;17.142;2022-09-17T09:44:04;15.80;83.20
12309;DHT22;6217;48.150;17.142;2022-09-17T09:53:34;15.90;82.70
12309;DHT22;6217;48.150;17.142;2022-09-17T09:57:53;16.00;82.60
12309;DHT22;6217;48.150;17.142;2022-09-17T10:02:02;15.90;82.20
12309;DHT22;6217;48.150;17.142;2022-09-17T10:06:09;15.90;82.10
12309;DHT22;6217;48.150;17.142;2022-09-17T10:10:16;15.90;82.00
12309;DHT22;6217;48.150;17.142;2022-09-17T10:14:28;16.00;81.90
12309;DHT22;6217;48.150;17.142;2022-09-17T10:18:38;16.10;81.30
12309;DHT22;6217;48.150;17.142;2022-09-17T10:22:45;16.10;81.40
12309;DHT22;6217;48.150;17.142;2022-09-17T10:27:00;16.20;80.90
12309;DHT22;6217;48.150;17.142;2022-09-17T10:31:08;16.30;80.30
12309;DHT22;6217;48.150;17.142;2022-09-17T10:43:32;16.50;79.20
12309;DHT22;6217;48.150;17.142;2022-09-17T10:47:41;16.50;78.60
12309;DHT22;6217;48.150;17.142;2022-09-17T10:51:48;16.60;78.20
12309;DHT22;6217;48.150;17.142;2022-09-17T10:56:12;16.70;77.80
12309;DHT22;6217;48.150;17.142;2022-09-17T11:00:25;17.10;77.00
12309;DHT22;6217;48.150;17.142;2022-09-17T11:09:35;17.60;74.30
12309;DHT22;6217;48.150;17.142;2022-09-17T11:14:17;17.70;73.90
12309;DHT22;6217;48.150;17.142;2022-09-17T11:18:42;17.90;73.60
12309;DHT22;6217;48.150;17.142;2022-09-17T11:27:33;18.20;71.90
12309;DHT22;6217;48.150;17.142;2022-09-17T11:31:55;18.10;71.90
12309;DHT22;6217;48.150;17.142;2022-09-17T11:36:10;17.90;72.40
12309;DHT22;6217;48.150;17.142;2022-09-17T11:44:53;17.70;70.80
12309;DHT22;6217;48.150;17.142;2022-09-17T11:49:05;17.60;71.00
12309;DHT22;6217;48.150;17.142;2022-09-17T11:57:51;17.30;70.60
12309;DHT22;6217;48.150;17.142;2022-09-17T12:16:30;17.00;70.80
12309;DHT22;6217;48.150;17.142;2022-09-17T12:20:43;17.10;71.20
12309;DHT22;6217;48.150;17.142;2022-09-17T12:24:51;17.00;71.00
12309;DHT22;6217;48.150;17.142;2022-09-17T12:34:30;16.90;71.00
12309;DHT22;6217;48.150;17.142;2022-09-17T12:44:06;16.90;71.80
12309;DHT22;6217;48.150;17.142;2022-09-17T13:02:21;17.00;70.90
12309;DHT22;6217;48.150;17.142;2022-09-17T13:20:57;17.10;71.50
12309;DHT22;6217;48.150;17.142;2022-09-17T13:25:08;17.20;71.10
12309;DHT22;6217;48.150;17.142;2022-09-17T13:38:00;17.00;71.20
12309;DHT22;6217;48.150;17.142;2022-09-17T13:42:30;16.90;71.00
12309;DHT22;6217;48.150;17.142;2022-09-17T13:46:47;16.90;70.80
12309;DHT22;6217;48.150;17.142;2022-09-17T13:50:53;16.90;71.70
12309;DHT22;6217;48.150;17.142;2022-09-17T13:55:00;16.90;71.00
12309;DHT22;6217;48.150;17.142;2022-09-17T13:59:27;16.80;71.60
12309;DHT22;6217;48.150;17.142;2022-09-17T14:08:10;16.60;73.20
12309;DHT22;6217;48.150;17.142;2022-09-17T14:16:46;16.40;74.10
12309;DHT22;6217;48.150;17.142;2022-09-17T14:21:03;16.30;74.70
12309;DHT22;6217;48.150;17.142;2022-09-17T14:25:16;16.10;75.30
12309;DHT22;6217;48.150;17.142;2022-09-17T14:34:21;15.90;76.60
12309;DHT22;6217;48.150;17.142;2022-09-17T14:38:41;15.90;76.80
12309;DHT22;6217;48.150;17.142;2022-09-17T14:42:55;15.90;77.10
12309;DHT22;6217;48.150;17.142;2022-09-17T14:47:06;15.90;77.10
12309;DHT22;6217;48.150;17.142;2022-09-17T14:55:27;15.90;77.00
12309;DHT22;6217;48.150;17.142;2022-09-17T15:04:20;15.80;77.10
12309;DHT22;6217;48.150;17.142;2022-09-17T15:08:27;15.80;77.70
12309;DHT22;6217;48.150;17.142;2022-09-17T15:12:36;15.80;78.10
12309;DHT22;6217;48.150;17.142;2022-09-17T15:16:51;15.70;78.60
12309;DHT22;6217;48.150;17.142;2022-09-17T15:21:00;15.70;78.90
12309;DHT22;6217;48.150;17.142;2022-09-17T15:25:20;15.60;79.00
12309;DHT22;6217;48.150;17.142;2022-09-17T15:29:31;15.60;79.00
12309;DHT22;6217;48.150;17.142;2022-09-17T15:33:38;15.70;79.00
12309;DHT22;6217;48.150;17.142;2022-09-17T15:37:52;15.70;78.90
12309;DHT22;6217;48.150;17.142;2022-09-17T15:42:00;15.70;78.80
12309;DHT22;6217;48.150;17.142;2022-09-17T15:46:23;15.70;78.70
12309;DHT22;6217;48.150;17.142;2022-09-17T15:50:48;15.70;78.90
12309;DHT22;6217;48.150;17.142;2022-09-17T15:55:01;15.50;79.70
12309;DHT22;6217;48.150;17.142;2022-09-17T15:59:25;15.30;80.70
12309;DHT22;6217;48.150;17.142;2022-09-17T16:07:45;15.20;81.80
12309;DHT22;6217;48.150;17.142;2022-09-17T16:11:52;15.10;81.80
12309;DHT22;6217;48.150;17.142;2022-09-17T16:15:58;15.10;82.00
12309;DHT22;6217;48.150;17.142;2022-09-17T16:20:07;15.20;82.10
12309;DHT22;6217;48.150;17.142;2022-09-17T16:24:21;15.20;82.10
12309;DHT22;6217;48.150;17.142;2022-09-17T16:28:28;15.20;81.80
12309;DHT22;6217;48.150;17.142;2022-09-17T16:32:35;15.20;81.80
12309;DHT22;6217;48.150;17.142;2022-09-17T16:36:41;15.20;81.90
12309;DHT22;6217;48.150;17.142;2022-09-17T16:40:47;15.10;81.90
12309;DHT22;6217;48.150;17.142;2022-09-17T16:44:54;15.10;81.90
12309;DHT22;6217;48.150;17.142;2022-09-17T16:49:00;15.10;81.90
12309;DHT22;6217;48.150;17.142;2022-09-17T16:53:06;15.10;82.00
12309;DHT22;6217;48.150;17.142;2022-09-17T16:57:12;15.10;82.00
12309;DHT22;6217;48.150;17.142;2022-09-17T17:01:18;15.10;82.00
12309;DHT22;6217;48.150;17.142;2022-09-17T17:05:25;15.10;82.10
12309;DHT22;6217;48.150;17.142;2022-09-17T17:09:33;15.10;82.10
12309;DHT22;6217;48.150;17.142;2022-09-17T17:13:41;15.10;82.10
12309;DHT22;6217;48.150;17.142;2022-09-17T17:17:47;15.10;82.20
12309;DHT22;6217;48.150;17.142;2022-09-17T17:21:54;15.10;82.20
12309;DHT22;6217;48.150;17.142;2022-09-17T17:26:00;15.10;82.20
12309;DHT22;6217;48.150;17.142;2022-09-17T17:30:08;15.20;82.20
12309;DHT22;6217;48.150;17.142;2022-09-17T17:34:21;15.20;82.40
12309;DHT22;6217;48.150;17.142;2022-09-17T17:38:27;15.20;82.30
12309;DHT22;6217;48.150;17.142;2022-09-17T17:42:33;15.20;82.20
12309;DHT22;6217;48.150;17.142;2022-09-17T17:46:43;15.20;82.10
12309;DHT22;6217;48.150;17.142;2022-09-17T17:50:49;15.20;82.30
12309;DHT22;6217;48.150;17.142;2022-09-17T17:54:55;15.20;81.90
12309;DHT22;6217;48.150;17.142;2022-09-17T17:59:01;15.20;82.10
12309;DHT22;6217;48.150;17.142;2022-09-17T18:03:08;15.30;82.10
12309;DHT22;6217;48.150;17.142;2022-09-17T18:07:14;15.30;81.90
12309;DHT22;6217;48.150;17.142;2022-09-17T18:11:21;15.20;82.00
12309;DHT22;6217;48.150;17.142;2022-09-17T18:15:28;15.20;82.30
12309;DHT22;6217;48.150;17.142;2022-09-17T18:19:34;15.10;82.40
12309;DHT22;6217;48.150;17.142;2022-09-17T18:23:40;15.00;82.60
12309;DHT22;6217;48.150;17.142;2022-09-17T18:27:47;15.00;82.70
12309;DHT22;6217;48.150;17.142;2022-09-17T18:31:53;15.00;82.60
12309;DHT22;6217;48.150;17.142;2022-09-17T18:36:02;15.00;82.70
12309;DHT22;6217;48.150;17.142;2022-09-17T18:40:10;15.00;82.60
12309;DHT22;6217;48.150;17.142;2022-09-17T18:44:16;14.90;83.00
12309;DHT22;6217;48.150;17.142;2022-09-17T18:48:25;14.80;83.60
12309;DHT22;6217;48.150;17.142;2022-09-17T18:52:32;14.70;84.50
12309;DHT22;6217;48.150;17.142;2022-09-17T18:56:38;14.60;85.10
12309;DHT22;6217;48.150;17.142;2022-09-17T19:00:46;14.60;85.80
12309;DHT22;6217;48.150;17.142;2022-09-17T19:04:52;14.50;86.30
12309;DHT22;6217;48.150;17.142;2022-09-17T19:08:59;14.40;86.90
12309;DHT22;6217;48.150;17.142;2022-09-17T19:13:06;14.40;87.30
12309;DHT22;6217;48.150;17.142;2022-09-17T19:17:12;14.30;87.80
12309;DHT22;6217;48.150;17.142;2022-09-17T19:21:19;14.30;88.10
12309;DHT22;6217;48.150;17.142;2022-09-17T19:25:26;14.20;88.70
12309;DHT22;6217;48.150;17.142;2022-09-17T19:29:32;14.20;89.00
12309;DHT22;6217;48.150;17.142;2022-09-17T19:33:39;14.10;89.30
12309;DHT22;6217;48.150;17.142;2022-09-17T19:37:45;14.00;89.80
12309;DHT22;6217;48.150;17.142;2022-09-17T19:41:51;14.00;90.00
12309;DHT22;6217;48.150;17.142;2022-09-17T19:46:05;14.00;90.20
12309;DHT22;6217;48.150;17.142;2022-09-17T19:50:13;14.00;90.40
12309;DHT22;6217;48.150;17.142;2022-09-17T19:54:22;13.90;90.50
12309;DHT22;6217;48.150;17.142;2022-09-17T19:58:29;13.90;90.60
12309;DHT22;6217;48.150;17.142;2022-09-17T20:02:35;13.90;90.70
12309;DHT22;6217;48.150;17.142;2022-09-17T20:06:41;13.90;90.80
12309;DHT22;6217;48.150;17.142;2022-09-17T20:10:49;13.80;90.80
12309;DHT22;6217;48.150;17.142;2022-09-17T20:14:56;13.90;90.90
12309;DHT22;6217;48.150;17.142;2022-09-17T20:19:04;13.90;90.90
12309;DHT22;6217;48.150;17.142;2022-09-17T20:23:11;13.90;90.90
12309;DHT22;6217;48.150;17.142;2022-09-17T20:27:17;13.80;90.90
12309;DHT22;6217;48.150;17.142;2022-09-17T20:31:28;13.80;90.90
12309;DHT22;6217;48.150;17.142;2022-09-17T20:35:35;13.80;90.90
12309;DHT22;6217;48.150;17.142;2022-09-17T20:39:42;13.80;90.80
12309;DHT22;6217;48.150;17.142;2022-09-17T20:43:49;13.90;90.80
12309;DHT22;6217;48.150;17.142;2022-09-17T20:47:57;13.90;90.70
12309;DHT22;6217;48.150;17.142;2022-09-17T20:52:03;13.80;90.60
12309;DHT22;6217;48.150;17.142;2022-09-17T20:56:15;13.80;90.70
12309;DHT22;6217;48.150;17.142;2022-09-17T21:00:25;13.80;90.70
12309;DHT22;6217;48.150;17.142;2022-09-17T21:04:34;13.70;90.60
12309;DHT22;6217;48.150;17.142;2022-09-17T21:08:40;13.70;90.50
12309;DHT22;6217;48.150;17.142;2022-09-17T21:12:46;13.60;90.40
12309;DHT22;6217;48.150;17.142;2022-09-17T21:16:55;13.60;90.40
12309;DHT22;6217;48.150;17.142;2022-09-17T21:21:03;13.60;90.30
12309;DHT22;6217;48.150;17.142;2022-09-17T21:25:10;13.50;90.30
12309;DHT22;6217;48.150;17.142;2022-09-17T21:29:17;13.50;90.30
12309;DHT22;6217;48.150;17.142;2022-09-17T21:33:23;13.50;90.20
12309;DHT22;6217;48.150;17.142;2022-09-17T21:37:29;13.50;90.20
12309;DHT22;6217;48.150;17.142;2022-09-17T21:41:36;13.40;90.10
12309;DHT22;6217;48.150;17.142;2022-09-17T21:45:42;13.40;90.20
12309;DHT22;6217;48.150;17.142;2022-09-17T21:49:49;13.40;90.20
12309;DHT22;6217;48.150;17.142;2022-09-17T21:53:57;13.40;90.20
12309;DHT22;6217;48.150;17.142;2022-09-17T21:58:04;13.40;90.20
12309;DHT22;6217;48.150;17.142;2022-09-17T22:02:10;13.40;90.10
12309;DHT22;6217;48.150;17.142;2022-09-17T22:06:22;13.40;90.00
12309;DHT22;6217;48.150;17.142;2022-09-17T22:10:29;13.30;90.00
12309;DHT22;6217;48.150;17.142;2022-09-17T22:14:35;13.30;89.80
12309;DHT22;6217;48.150;17.142;2022-09-17T22:18:46;13.30;89.50
12309;DHT22;6217;48.150;17.142;2022-09-17T22:22:54;13.30;89.40
12309;DHT22;6217;48.150;17.142;2022-09-17T22:27:00;13.30;89.80
12309;DHT22;6217;48.150;17.142;2022-09-17T22:31:08;13.30;88.80
12309;DHT22;6217;48.150;17.142;2022-09-17T22:35:16;13.20;88.60
12309;DHT22;6217;48.150;17.142;2022-09-17T22:39:22;13.20;88.30
12309;DHT22;6217;48.150;17.142;2022-09-17T22:43:28;13.20;88.10
12309;DHT22;6217;48.150;17.142;2022-09-17T22:47:34;13.10;87.70
12309;DHT22;6217;48.150;17.142;2022-09-17T22:51:41;13.10;87.50
12309;DHT22;6217;48.150;17.142;2022-09-17T22:55:55;13.10;87.30
12309;DHT22;6217;48.150;17.142;2022-09-17T23:00:03;13.10;87.00
12309;DHT22;6217;48.150;17.142;2022-09-17T23:04:11;13.00;86.60
12309;DHT22;6217;48.150;17.142;2022-09-17T23:08:17;12.90;86.40
12309;DHT22;6217;48.150;17.142;2022-09-17T23:12:23;12.90;86.30
12309;DHT22;6217;48.150;17.142;2022-09-17T23:16:37;12.90;86.30
12309;DHT22;6217;48.150;17.142;2022-09-17T23:20:58;12.80;86.10
12309;DHT22;6217;48.150;17.142;2022-09-17T23:25:05;12.80;85.90
12309;DHT22;6217;48.150;17.142;2022-09-17T23:29:12;12.80;85.80
12309;DHT22;6217;48.150;17.142;2022-09-17T23:33:18;12.80;85.70
12309;DHT22;6217;48.150;17.142;2022-09-17T23:37:24;12.80;85.80
12309;DHT22;6217;48.150;17.142;2022-09-17T23:41:33;12.70;85.80
12309;DHT22;6217;48.150;17.142;2022-09-17T23:45:55;12.70;85.80
12309;DHT22;6217;48.150;17.142;2022-09-17T23:50:01;12.70;85.60
12309;DHT22;6217;48.150;17.142;2022-09-17T23:54:08;12.70;85.50
12309;DHT22;6217;48.150;17.142;2022-09-17T23:58:15;12.60;85.60
